createdAt,value
2019-03-08T00:00:02.897Z,2.02
2019-03-08T00:01:02.825Z,2.01
2019-03-08T00:02:03.561Z,1.85
2019-03-08T00:03:03.050Z,1.71
2019-03-08T00:04:03.310Z,1.9
2019-03-08T00:05:03.605Z,1.65
2019-03-08T00:06:03.457Z,2.14
2019-03-08T00:07:03.504Z,2.18
2019-03-08T00:08:03.212Z,1.8
2019-03-08T00:09:03.335Z,1.67
2019-03-08T00:10:03.372Z,1.95
2019-03-08T00:11:03.119Z,1.78
2019-03-08T00:12:02.875Z,1.59
2019-03-08T00:13:05.470Z,1.95
2019-03-08T00:14:03.393Z,1.78
2019-03-08T00:15:03.102Z,2.25
2019-03-08T00:16:03.335Z,1.49
2019-03-08T00:17:03.238Z,1.72
2019-03-08T00:18:03.383Z,1.91
2019-03-08T00:19:02.934Z,1.64
2019-03-08T00:20:02.969Z,2.14
2019-03-08T00:21:03.103Z,1.89
2019-03-08T00:22:03.019Z,2.05
2019-03-08T00:23:03.055Z,1.84
2019-03-08T00:24:03.252Z,1.98
2019-03-08T00:25:03.099Z,1.72
2019-03-08T00:26:04.484Z,1.91
2019-03-08T00:27:03.303Z,2.16
2019-03-08T00:28:02.924Z,2.16
2019-03-08T00:29:03.590Z,1.58
2019-03-08T00:30:03.267Z,1.58
2019-03-08T00:31:02.782Z,1.73
2019-03-08T00:32:02.883Z,1.63
2019-03-08T00:33:03.004Z,1.63
2019-03-08T00:34:03.290Z,1.55
2019-03-08T00:35:03.398Z,1.81
2019-03-08T00:36:02.500Z,1.83
2019-03-08T00:37:02.974Z,1.99
2019-03-08T00:38:03.053Z,1.87
2019-03-08T00:39:02.723Z,1.92
2019-03-08T00:40:03.179Z,1.64
2019-03-08T00:41:02.894Z,1.82
2019-03-08T00:42:02.807Z,1.59
2019-03-08T00:43:02.853Z,1.91
2019-03-08T00:44:02.713Z,1.44
2019-03-08T00:45:02.998Z,1.74
2019-03-08T00:46:02.914Z,1.89
2019-03-08T00:47:02.851Z,1.73
2019-03-08T00:48:02.771Z,2.74
2019-03-08T00:49:02.940Z,1.46
2019-03-08T00:50:02.674Z,1.61
2019-03-08T00:51:03.335Z,1.89
2019-03-08T00:52:03.128Z,1.48
2019-03-08T00:53:02.973Z,1.79
2019-03-08T00:54:02.842Z,1.29
2019-03-08T00:55:03.743Z,1.75
2019-03-08T00:56:04.020Z,1.8
2019-03-08T00:57:02.726Z,1.85
2019-03-08T00:58:03.206Z,1.87
2019-03-08T00:59:03.772Z,1.55
2019-03-08T01:00:03.700Z,1.48
2019-03-08T01:01:03.674Z,1.77
2019-03-08T01:02:02.700Z,1.34
2019-03-08T01:03:02.975Z,1.71
2019-03-08T01:04:02.975Z,1.8
2019-03-08T01:05:02.884Z,1.8
2019-03-08T01:06:03.692Z,1.99
2019-03-08T01:07:02.751Z,1.71
2019-03-08T01:08:03.546Z,1.43
2019-03-08T01:09:03.229Z,1.91
2019-03-08T01:10:03.567Z,1.73
2019-03-08T01:11:02.933Z,1.71
2019-03-08T01:12:02.750Z,1.63
2019-03-08T01:13:02.891Z,1.63
2019-03-08T01:14:03.507Z,1.79
2019-03-08T01:15:03.432Z,1.64
2019-03-08T01:16:02.887Z,1.64
2019-03-08T01:17:03.323Z,1.65
2019-03-08T01:18:03.329Z,1.65
2019-03-08T01:19:03.222Z,1.69
2019-03-08T01:20:03.640Z,1.69
2019-03-08T01:21:03.423Z,1.49
2019-03-08T01:22:03.672Z,1.87
2019-03-08T01:23:03.568Z,2.05
2019-03-08T01:24:03.466Z,1.62
2019-03-08T01:25:03.462Z,1.65
2019-03-08T01:26:02.915Z,1.59
2019-03-08T01:27:02.816Z,1.27
2019-03-08T01:28:03.510Z,1.19
2019-03-08T01:29:03.212Z,1.53
2019-03-08T01:30:03.321Z,1.69
2019-03-08T01:31:03.274Z,1.7
2019-03-08T01:32:05.609Z,1.67
2019-03-08T01:33:03.825Z,1.32
2019-03-08T01:34:03.330Z,1.52
2019-03-08T01:35:02.908Z,1.31
2019-03-08T01:36:03.306Z,1.51
2019-03-08T01:37:03.453Z,1.34
2019-03-08T01:38:03.386Z,1.14
2019-03-08T01:39:03.368Z,1.05
2019-03-08T01:40:03.146Z,1.16
2019-03-08T01:41:03.263Z,1.22
2019-03-08T01:42:03.456Z,1.74
2019-03-08T01:43:03.094Z,1.46
2019-03-08T01:44:03.288Z,1.44
2019-03-08T01:45:03.928Z,1.39
2019-03-08T01:46:03.386Z,1.6
2019-03-08T01:47:03.015Z,1.45
2019-03-08T01:48:03.185Z,1.64
2019-03-08T01:49:03.622Z,1.6
2019-03-08T01:50:03.685Z,2.09
2019-03-08T01:51:03.006Z,2.02
2019-03-08T01:52:02.779Z,1.28
2019-03-08T01:53:02.765Z,1.51
2019-03-08T01:54:02.922Z,1.3
2019-03-08T01:55:03.077Z,1.34
2019-03-08T01:56:03.423Z,1.26
2019-03-08T01:57:02.982Z,1.49
2019-03-08T01:58:03.758Z,1.45
2019-03-08T01:59:03.439Z,1.42
2019-03-08T02:00:03.582Z,1.37
2019-03-08T02:01:03.303Z,1.37
2019-03-08T02:03:03.747Z,1.56
2019-03-08T02:04:02.730Z,1.41
2019-03-08T02:05:03.583Z,1.72
2019-03-08T02:06:03.600Z,1.72
2019-03-08T02:07:03.205Z,1.74
2019-03-08T02:08:03.246Z,1.74
2019-03-08T02:09:03.505Z,1.71
2019-03-08T02:10:02.950Z,1.45
2019-03-08T02:11:03.337Z,1.78
2019-03-08T02:12:03.088Z,1.46
2019-03-08T02:13:03.531Z,1.46
2019-03-08T02:14:03.133Z,1.56
2019-03-08T02:15:03.093Z,1.14
2019-03-08T02:16:02.829Z,2.05
2019-03-08T02:17:03.538Z,2.05
2019-03-08T02:18:03.695Z,1.34
2019-03-08T02:19:02.820Z,1.58
2019-03-08T02:20:02.833Z,1.25
2019-03-08T02:21:07.590Z,1.32
2019-03-08T02:22:02.949Z,1.46
2019-03-08T02:23:02.966Z,1.52
2019-03-08T02:24:02.754Z,1.91
2019-03-08T02:25:02.690Z,2.06
2019-03-08T02:26:02.851Z,2.02
2019-03-08T02:27:03.720Z,1.46
2019-03-08T02:28:02.847Z,1.2
2019-03-08T02:29:03.164Z,1.16
2019-03-08T02:30:02.701Z,1.13
2019-03-08T02:31:03.337Z,1.28
2019-03-08T02:32:02.781Z,1.21
2019-03-08T02:33:03.638Z,1.06
2019-03-08T02:34:02.921Z,1.45
2019-03-08T02:35:02.993Z,1.35
2019-03-08T02:36:03.039Z,1.21
2019-03-08T02:37:03.698Z,1.12
2019-03-08T02:38:03.508Z,1.23
2019-03-08T02:39:03.147Z,1.58
2019-03-08T02:40:03.598Z,1.25
2019-03-08T02:41:02.793Z,1.64
2019-03-08T02:42:03.283Z,1.55
2019-03-08T02:43:03.498Z,1.19
2019-03-08T02:44:03.487Z,1.55
2019-03-08T02:45:03.689Z,1.21
2019-03-08T02:46:03.172Z,1.01
2019-03-08T02:47:02.748Z,1.01
2019-03-08T02:48:03.142Z,0.95
2019-03-08T02:49:03.394Z,1.29
2019-03-08T02:50:03.356Z,2.06
2019-03-08T02:51:03.242Z,2.06
2019-03-08T02:52:03.506Z,1.42
2019-03-08T02:53:03.515Z,1.18
2019-03-08T02:54:03.299Z,1.18
2019-03-08T02:55:03.430Z,1.05
2019-03-08T02:56:02.990Z,1.05
2019-03-08T02:57:03.152Z,1.39
2019-03-08T02:58:03.003Z,1.25
2019-03-08T02:59:03.074Z,1.44
2019-03-08T03:00:03.082Z,1.05
2019-03-08T03:01:03.125Z,1.13
2019-03-08T03:02:02.942Z,1.1
2019-03-08T03:03:03.130Z,1.16
2019-03-08T03:04:02.791Z,1.02
2019-03-08T03:05:02.802Z,0.95
2019-03-08T03:06:02.765Z,1.35
2019-03-08T03:07:02.872Z,1.02
2019-03-08T03:08:02.572Z,1.05
2019-03-08T03:09:02.971Z,0.66
2019-03-08T03:10:03.468Z,1.06
2019-03-08T03:11:03.492Z,0.95
2019-03-08T03:12:03.510Z,1.14
2019-03-08T03:13:03.463Z,1.18
2019-03-08T03:14:03.580Z,1.15
2019-03-08T03:15:03.475Z,1.04
2019-03-08T03:16:03.432Z,1.22
2019-03-08T03:17:03.481Z,1.48
2019-03-08T03:18:03.524Z,1.49
2019-03-08T03:19:03.171Z,1.02
2019-03-08T03:20:03.479Z,0.86
2019-03-08T03:21:02.900Z,0.94
2019-03-08T03:22:03.047Z,0.87
2019-03-08T03:23:03.138Z,1.19
2019-03-08T03:24:02.954Z,1.05
2019-03-08T03:25:03.484Z,1.12
2019-03-08T03:26:02.771Z,0.98
2019-03-08T03:27:02.963Z,0.99
2019-03-08T03:28:02.791Z,1.02
2019-03-08T03:29:03.100Z,1
2019-03-08T03:30:03.129Z,0.88
2019-03-08T03:31:03.161Z,1.07
2019-03-08T03:32:02.817Z,0.88
2019-03-08T03:33:03.240Z,1.24
2019-03-08T03:34:02.966Z,0.88
2019-03-08T03:35:03.547Z,0.78
2019-03-08T03:36:02.787Z,1.14
2019-03-08T03:37:03.767Z,1.18
2019-03-08T03:38:03.588Z,0.9
2019-03-08T03:39:03.676Z,1.46
2019-03-08T03:40:02.891Z,0.83
2019-03-08T03:41:03.170Z,0.83
2019-03-08T03:42:02.918Z,1.02
2019-03-08T03:43:02.624Z,1.02
2019-03-08T03:44:03.459Z,1
2019-03-08T03:45:03.733Z,1.26
2019-03-08T03:46:03.532Z,1.26
2019-03-08T03:47:03.627Z,1
2019-03-08T03:48:03.433Z,1.13
2019-03-08T03:49:03.614Z,1.13
2019-03-08T03:50:03.539Z,1.03
2019-03-08T03:51:03.332Z,0.99
2019-03-08T03:52:03.160Z,1.22
2019-03-08T03:53:03.076Z,1.01
2019-03-08T03:54:03.238Z,1.16
2019-03-08T03:55:03.150Z,0.87
2019-03-08T03:56:03.249Z,0.78
2019-03-08T03:57:03.194Z,1.05
2019-03-08T03:58:02.795Z,0.96
2019-03-08T03:59:02.812Z,0.75
2019-03-08T04:00:03.272Z,1.01
2019-03-08T04:01:02.918Z,1.05
2019-03-08T04:02:02.781Z,1.12
2019-03-08T04:03:03.160Z,1.28
2019-03-08T04:04:03.250Z,1.59
2019-03-08T04:05:03.430Z,2.14
2019-03-08T04:06:03.117Z,1.13
2019-03-08T04:07:02.822Z,1.54
2019-03-08T04:08:02.897Z,1.24
2019-03-08T04:09:02.886Z,1.32
2019-03-08T04:10:02.923Z,1.22
2019-03-08T04:11:02.867Z,1.21
2019-03-08T04:12:03.182Z,1.07
2019-03-08T04:13:02.938Z,1.16
2019-03-08T04:14:02.814Z,1.02
2019-03-08T04:15:02.925Z,1.44
2019-03-08T04:16:03.691Z,1.36
2019-03-08T04:17:02.552Z,1.12
2019-03-08T04:18:03.610Z,1.34
2019-03-08T04:19:03.674Z,1.15
2019-03-08T04:20:03.591Z,1.04
2019-03-08T04:21:03.804Z,1.12
2019-03-08T04:22:03.604Z,1.11
2019-03-08T04:23:03.436Z,1.11
2019-03-08T04:24:03.694Z,1.98
2019-03-08T04:25:03.633Z,1.14
2019-03-08T04:26:03.478Z,1.26
2019-03-08T04:27:03.327Z,1.9
2019-03-08T04:28:03.247Z,1.28
2019-03-08T04:29:03.432Z,1.27
2019-03-08T04:30:03.275Z,1.16
2019-03-08T04:31:03.251Z,1.07
2019-03-08T04:32:03.213Z,1.07
2019-03-08T04:33:03.167Z,1.18
2019-03-08T04:34:04.172Z,1.18
2019-03-08T04:35:03.258Z,1.41
2019-03-08T04:36:03.051Z,1.15
2019-03-08T04:37:03.216Z,1.16
2019-03-08T04:38:03.146Z,1.34
2019-03-08T04:39:03.232Z,1.24
2019-03-08T04:40:03.815Z,1.09
2019-03-08T04:41:02.591Z,1.16
2019-03-08T04:42:02.676Z,1.09
2019-03-08T04:43:03.067Z,1
2019-03-08T04:44:03.681Z,1.05
2019-03-08T04:45:03.211Z,0.86
2019-03-08T04:46:03.827Z,1.06
2019-03-08T04:47:03.492Z,1.16
2019-03-08T04:48:03.483Z,1.18
2019-03-08T04:49:03.312Z,1.08
2019-03-08T04:50:03.410Z,1.09
2019-03-08T04:51:03.462Z,1.11
2019-03-08T04:52:03.418Z,1.02
2019-03-08T04:53:03.459Z,1.08
2019-03-08T04:54:03.493Z,1.08
2019-03-08T04:55:03.423Z,1.38
2019-03-08T04:56:03.552Z,1.86
2019-03-08T04:57:03.194Z,1.38
2019-03-08T04:58:03.191Z,1.23
2019-03-08T04:59:03.305Z,2.26
2019-03-08T05:00:03.315Z,1.66
2019-03-08T05:01:03.104Z,1.42
2019-03-08T05:02:03.151Z,1.27
2019-03-08T05:03:03.099Z,1.15
2019-03-08T05:04:02.935Z,1.41
2019-03-08T05:05:03.062Z,1.29
2019-03-08T05:06:02.930Z,1.46
2019-03-08T05:07:03.112Z,1.25
2019-03-08T05:08:02.780Z,1.78
2019-03-08T05:09:02.961Z,1.21
2019-03-08T05:10:02.933Z,1.19
2019-03-08T05:11:03.502Z,1.25
2019-03-08T05:12:02.810Z,1.12
2019-03-08T05:13:03.507Z,1.06
2019-03-08T05:14:03.539Z,1.11
2019-03-08T05:15:03.541Z,0.94
2019-03-08T05:16:03.745Z,1.14
2019-03-08T05:17:03.838Z,1.02
2019-03-08T05:18:03.249Z,1.25
2019-03-08T05:19:03.551Z,1.42
2019-03-08T05:20:03.493Z,1.42
2019-03-08T05:21:03.061Z,1.16
2019-03-08T05:22:03.572Z,1.17
2019-03-08T05:23:03.505Z,1.17
2019-03-08T05:24:03.002Z,0.93
2019-03-08T05:25:03.505Z,1.35
2019-03-08T05:26:03.346Z,1.35
2019-03-08T05:27:03.578Z,1.52
2019-03-08T05:28:05.063Z,1.38
2019-03-08T05:29:03.358Z,1.21
2019-03-08T05:30:03.505Z,1.12
2019-03-08T05:31:03.041Z,1.12
2019-03-08T05:32:03.196Z,1.55
2019-03-08T05:33:03.661Z,1.14
2019-03-08T05:34:03.018Z,1.37
2019-03-08T05:35:02.978Z,1.25
2019-03-08T05:36:03.184Z,1.54
2019-03-08T05:37:02.844Z,1.56
2019-03-08T05:38:03.244Z,1.84
2019-03-08T05:39:03.087Z,1.7
2019-03-08T05:40:03.121Z,2.25
2019-03-08T05:41:03.947Z,1.67
2019-03-08T05:42:02.710Z,1.78
2019-03-08T05:43:04.237Z,1.76
2019-03-08T05:47:02.846Z,1.19
2019-03-08T05:48:03.153Z,1.43
2019-03-08T05:49:03.648Z,1.86
2019-03-08T05:50:02.824Z,1.05
2019-03-08T05:51:02.962Z,1.05
2019-03-08T05:52:02.752Z,1.67
2019-03-08T05:53:03.656Z,1.29
2019-03-08T05:54:03.722Z,1.16
2019-03-08T05:55:03.696Z,1.29
2019-03-08T05:56:03.450Z,1.42
2019-03-08T05:57:03.618Z,1.32
2019-03-08T05:58:03.290Z,1.54
2019-03-08T05:59:03.447Z,1.16
2019-03-08T06:00:03.421Z,1.49
2019-03-08T06:01:03.234Z,1.35
2019-03-08T06:02:03.625Z,1.11
2019-03-08T06:03:03.718Z,1.85
2019-03-08T06:04:03.751Z,1.24
2019-03-08T06:06:02.898Z,6.16
2019-03-08T06:07:03.743Z,5.52
2019-03-08T06:08:03.526Z,10.08
2019-03-08T06:09:03.069Z,8.72
2019-03-08T06:10:03.276Z,6.95
2019-03-08T06:11:03.302Z,5.69
2019-03-08T06:12:03.286Z,2.69
2019-03-08T06:13:02.869Z,2.74
2019-03-08T06:14:03.131Z,1.86
2019-03-08T06:15:03.003Z,2.65
2019-03-08T06:16:03.093Z,2.46
2019-03-08T06:17:02.886Z,3.01
2019-03-08T06:18:02.999Z,2.3
2019-03-08T06:19:02.925Z,2.45
2019-03-08T06:20:03.814Z,2.16
2019-03-08T06:21:02.938Z,2.44
2019-03-08T06:22:02.732Z,1.46
2019-03-08T06:23:04.891Z,1.46
2019-03-08T06:24:03.656Z,1.35
2019-03-08T06:25:03.691Z,2.04
2019-03-08T06:26:02.783Z,2.04
2019-03-08T06:27:02.954Z,5.84
2019-03-08T06:28:02.729Z,5.84
2019-03-08T06:29:03.713Z,4.15
2019-03-08T06:30:03.520Z,1.99
2019-03-08T06:31:03.489Z,1.99
2019-03-08T06:32:03.409Z,2.17
2019-03-08T06:33:03.418Z,2.08
2019-03-08T06:34:03.197Z,1.54
2019-03-08T06:35:03.507Z,1.11
2019-03-08T06:36:03.305Z,1.85
2019-03-08T06:37:03.152Z,1.17
2019-03-08T06:38:03.294Z,1.13
2019-03-08T06:39:03.177Z,1.51
2019-03-08T06:40:03.336Z,1.25
2019-03-08T06:41:03.230Z,1.33
2019-03-08T06:42:03.171Z,1.34
2019-03-08T06:43:03.255Z,1.25
2019-03-08T06:44:02.837Z,1.2
2019-03-08T06:45:03.048Z,0.98
2019-03-08T06:46:03.176Z,0.99
2019-03-08T06:47:02.854Z,1.25
2019-03-08T06:48:02.857Z,1.2
2019-03-08T06:49:03.325Z,1.05
2019-03-08T06:50:02.871Z,1.35
2019-03-08T06:51:03.841Z,1.16
2019-03-08T06:52:03.658Z,1.04
2019-03-08T06:53:02.720Z,1.1
2019-03-08T06:54:03.348Z,1.08
2019-03-08T06:55:02.747Z,1.47
2019-03-08T06:56:02.772Z,1
2019-03-08T06:57:03.739Z,1.11
2019-03-08T06:58:03.698Z,1.31
2019-03-08T06:59:02.982Z,1.36
2019-03-08T07:00:03.144Z,1.62
2019-03-08T07:01:03.405Z,1.26
2019-03-08T07:02:03.554Z,1.74
2019-03-08T07:03:03.119Z,1.48
2019-03-08T07:04:03.285Z,0.81
2019-03-08T07:05:03.487Z,1.13
2019-03-08T07:06:03.314Z,1.71
2019-03-08T07:07:03.587Z,1.09
2019-03-08T07:08:03.102Z,0.74
2019-03-08T07:09:03.107Z,0.99
2019-03-08T07:10:03.132Z,1.02
2019-03-08T07:11:03.319Z,0.72
2019-03-08T07:12:03.294Z,0.88
2019-03-08T07:13:04.112Z,1.16
2019-03-08T07:14:03.220Z,1.03
2019-03-08T07:15:03.354Z,1.23
2019-03-08T07:16:13.530Z,0.96
2019-03-08T07:17:03.072Z,0.96
2019-03-08T07:18:13.120Z,1.25
2019-03-08T07:19:02.982Z,1.02
2019-03-08T07:20:03.434Z,1.02
2019-03-08T07:21:03.501Z,1.02
2019-03-08T07:22:02.800Z,2.02
2019-03-08T07:23:03.718Z,2.02
2019-03-08T07:24:02.774Z,1.12
2019-03-08T07:25:03.251Z,1.3
2019-03-08T07:26:03.030Z,1.55
2019-03-08T07:27:02.951Z,1.08
2019-03-08T07:28:03.323Z,1.69
2019-03-08T07:29:03.093Z,1.71
2019-03-08T07:30:03.251Z,1.4
2019-03-08T07:31:02.892Z,0.95
2019-03-08T07:32:02.792Z,0.98
2019-03-08T07:33:02.979Z,1.05
2019-03-08T07:34:02.785Z,0.99
2019-03-08T07:35:03.201Z,1.12
2019-03-08T07:36:02.609Z,0.9
2019-03-08T07:37:02.812Z,1.04
2019-03-08T07:38:03.612Z,0.63
2019-03-08T07:39:02.722Z,0.81
2019-03-08T07:40:03.846Z,0.91
2019-03-08T07:41:03.397Z,1.01
2019-03-08T07:42:03.790Z,1.27
2019-03-08T07:43:03.220Z,0.95
2019-03-08T07:44:03.609Z,1.12
2019-03-08T07:45:03.483Z,0.88
2019-03-08T07:46:03.281Z,1.29
2019-03-08T07:47:03.186Z,0.89
2019-03-08T07:48:03.399Z,1.04
2019-03-08T07:49:03.363Z,1.45
2019-03-08T07:50:03.378Z,0.85
2019-03-08T07:51:03.444Z,0.74
2019-03-08T07:52:03.173Z,0.88
2019-03-08T07:53:03.110Z,0.7
2019-03-08T07:54:03.648Z,0.99
2019-03-08T07:55:03.373Z,0.99
2019-03-08T07:56:03.187Z,0.62
2019-03-08T07:57:03.294Z,0.6
2019-03-08T07:58:03.139Z,0.98
2019-03-08T07:59:03.375Z,0.85
2019-03-08T08:00:03.050Z,0.86
2019-03-08T08:01:03.269Z,1.01
2019-03-08T08:02:03.106Z,0.89
2019-03-08T08:03:04.799Z,0.56
2019-03-08T08:04:02.954Z,1.07
2019-03-08T08:05:03.489Z,0.77
2019-03-08T08:06:02.854Z,0.77
2019-03-08T08:07:03.159Z,0.79
2019-03-08T08:08:02.636Z,0.79
2019-03-08T08:09:02.905Z,0.78
2019-03-08T08:10:02.867Z,0.92
2019-03-08T08:11:03.060Z,0.92
2019-03-08T08:12:02.844Z,1.23
2019-03-08T08:13:03.685Z,0.82
2019-03-08T08:14:02.781Z,0.95
2019-03-08T08:15:02.911Z,0.89
2019-03-08T08:16:03.628Z,0.87
2019-03-08T08:17:03.374Z,0.8
2019-03-08T08:18:03.740Z,0.75
2019-03-08T08:19:03.781Z,0.95
2019-03-08T08:20:02.842Z,0.82
2019-03-08T08:21:03.425Z,0.66
2019-03-08T08:22:03.277Z,0.9
2019-03-08T08:23:03.165Z,0.9
2019-03-08T08:24:03.331Z,0.7
2019-03-08T08:25:03.514Z,0.68
2019-03-08T08:26:03.706Z,0.54
2019-03-08T08:27:03.602Z,0.69
2019-03-08T08:28:03.029Z,0.88
2019-03-08T08:29:03.225Z,0.66
2019-03-08T08:30:03.633Z,0.89
2019-03-08T08:31:03.370Z,0.69
2019-03-08T08:32:03.327Z,0.55
2019-03-08T08:33:03.305Z,0.64
2019-03-08T08:34:03.303Z,0.68
2019-03-08T08:35:03.315Z,0.7
2019-03-08T08:36:03.173Z,0.68
2019-03-08T08:37:02.770Z,0.69
2019-03-08T08:38:03.400Z,0.77
2019-03-08T08:39:03.249Z,0.94
2019-03-08T08:40:03.090Z,0.73
2019-03-08T08:41:03.194Z,0.55
2019-03-08T08:42:03.244Z,0.78
2019-03-08T08:43:03.468Z,0.55
2019-03-08T08:44:03.210Z,0.74
2019-03-08T08:45:03.011Z,0.55
2019-03-08T08:46:03.266Z,0.42
2019-03-08T08:47:03.066Z,0.56
2019-03-08T08:48:02.993Z,0.66
2019-03-08T08:49:02.837Z,0.57
2019-03-08T08:50:02.834Z,0.65
2019-03-08T08:51:03.158Z,0.61
2019-03-08T08:52:03.114Z,0.46
2019-03-08T08:53:03.038Z,0.66
2019-03-08T08:54:02.763Z,0.66
2019-03-08T08:55:03.001Z,0.44
2019-03-08T08:56:03.840Z,0.58
2019-03-08T08:57:02.752Z,0.58
2019-03-08T08:58:02.717Z,0.52
2019-03-08T08:59:03.312Z,0.6
2019-03-08T09:00:02.855Z,0.53
2019-03-08T09:01:02.504Z,0.55
2019-03-08T09:02:02.944Z,0.79
2019-03-08T09:03:02.875Z,1.03
2019-03-08T09:04:02.885Z,1.74
2019-03-08T09:05:03.595Z,0.61
2019-03-08T09:06:02.663Z,0.74
2019-03-08T09:07:03.638Z,0.65
2019-03-08T09:08:02.637Z,0.68
2019-03-08T09:09:03.623Z,0.62
2019-03-08T09:10:03.581Z,0.7
2019-03-08T09:12:03.395Z,0.64
2019-03-08T09:13:03.327Z,0.6
2019-03-08T09:14:03.657Z,0.48
2019-03-08T09:15:03.646Z,0.45
2019-03-08T09:16:03.028Z,0.6
2019-03-08T09:17:03.470Z,0.54
2019-03-08T09:18:03.169Z,0.69
2019-03-08T09:19:03.106Z,0.45
2019-03-08T09:20:02.872Z,0.62
2019-03-08T09:21:03.534Z,0.62
2019-03-08T09:22:03.073Z,0.48
2019-03-08T09:23:03.474Z,0.72
2019-03-08T09:24:03.298Z,0.61
2019-03-08T09:25:03.189Z,0.82
2019-03-08T09:26:02.818Z,0.82
2019-03-08T09:27:03.068Z,0.6
2019-03-08T09:28:03.217Z,0.59
2019-03-08T09:29:03.023Z,0.75
2019-03-08T09:30:03.222Z,0.49
2019-03-08T09:31:03.120Z,0.43
2019-03-08T09:32:03.171Z,0.48
2019-03-08T09:33:03.532Z,0.48
2019-03-08T09:34:02.869Z,0.51
2019-03-08T09:35:02.882Z,0.56
2019-03-08T09:36:02.861Z,0.67
2019-03-08T09:37:02.911Z,0.62
2019-03-08T09:38:03.359Z,0.57
2019-03-08T09:39:03.410Z,0.57
2019-03-08T09:40:03.259Z,0.64
2019-03-08T09:41:02.891Z,0.64
2019-03-08T09:42:02.804Z,0.91
2019-03-08T09:43:03.521Z,0.79
2019-03-08T09:44:02.869Z,0.79
2019-03-08T09:45:02.966Z,0.81
2019-03-08T09:46:03.465Z,0.81
2019-03-08T09:47:03.985Z,0.54
2019-03-08T09:48:03.605Z,0.65
2019-03-08T09:49:02.682Z,0.52
2019-03-08T09:50:03.443Z,0.84
2019-03-08T09:51:03.534Z,0.44
2019-03-08T09:52:03.452Z,0.82
2019-03-08T09:53:03.474Z,0.69
2019-03-08T09:54:03.307Z,0.76
2019-03-08T09:55:03.963Z,0.55
2019-03-08T09:56:02.791Z,0.59
2019-03-08T09:57:03.420Z,0.59
2019-03-08T09:58:03.317Z,0.68
2019-03-08T09:59:02.875Z,0.54
2019-03-08T10:00:03.660Z,0.61
2019-03-08T10:01:03.287Z,0.56
2019-03-08T10:02:03.307Z,0.62
2019-03-08T10:03:04.074Z,0.55
2019-03-08T10:04:03.411Z,0.66
2019-03-08T10:05:03.314Z,0.6
2019-03-08T10:06:03.280Z,0.68
2019-03-08T10:07:02.996Z,0.53
2019-03-08T10:08:03.385Z,0.79
2019-03-08T10:09:02.819Z,0.71
2019-03-08T10:10:03.410Z,0.55
2019-03-08T10:11:03.393Z,0.78
2019-03-08T10:12:03.028Z,0.54
2019-03-08T10:13:02.961Z,0.51
2019-03-08T10:14:02.873Z,0.71
2019-03-08T10:15:03.161Z,0.84
2019-03-08T10:16:02.994Z,0.54
2019-03-08T10:17:03.147Z,0.61
2019-03-08T10:18:03.506Z,0.46
2019-03-08T10:19:03.143Z,0.85
2019-03-08T10:20:02.821Z,0.55
2019-03-08T10:21:03.489Z,0.41
2019-03-08T10:22:03.658Z,0.43
2019-03-08T10:23:02.590Z,0.68
2019-03-08T10:24:03.788Z,0.72
2019-03-08T10:25:03.630Z,1.22
2019-03-08T10:26:03.592Z,0.92
2019-03-08T10:27:03.061Z,0.87
2019-03-08T10:28:03.564Z,0.64
2019-03-08T10:29:03.869Z,0.61
2019-03-08T10:30:02.866Z,0.61
2019-03-08T10:31:03.615Z,0.49
2019-03-08T10:32:03.740Z,0.49
2019-03-08T10:33:03.368Z,0.64
2019-03-08T10:34:02.862Z,0.84
2019-03-08T10:35:03.992Z,0.48
2019-03-08T10:36:03.502Z,0.53
2019-03-08T10:37:03.484Z,0.78
2019-03-08T10:38:03.479Z,0.56
2019-03-08T10:39:03.614Z,0.53
2019-03-08T10:40:05.814Z,0.74
2019-03-08T10:41:03.434Z,0.58
2019-03-08T10:42:03.223Z,0.85
2019-03-08T10:43:03.759Z,0.7
2019-03-08T10:44:12.462Z,0.85
2019-03-08T10:45:03.280Z,0.62
2019-03-08T10:46:03.188Z,0.64
2019-03-08T10:47:03.383Z,1.14
2019-03-08T10:48:03.151Z,0.51
2019-03-08T10:49:03.843Z,0.79
2019-03-08T10:50:03.398Z,0.66
2019-03-08T10:51:03.510Z,0.68
2019-03-08T10:52:03.116Z,0.71
2019-03-08T10:53:03.369Z,0.46
2019-03-08T10:54:03.518Z,0.78
2019-03-08T10:55:03.292Z,0.48
2019-03-08T10:56:03.155Z,0.85
2019-03-08T10:57:03.266Z,0.61
2019-03-08T10:58:03.341Z,0.58
2019-03-08T10:59:03.357Z,0.71
2019-03-08T11:00:03.431Z,0.62
2019-03-08T11:01:03.286Z,0.58
2019-03-08T11:02:02.894Z,0.56
2019-03-08T11:03:03.034Z,0.51
2019-03-08T11:04:02.809Z,0.61
2019-03-08T11:05:03.361Z,0.58
2019-03-08T11:06:03.288Z,0.51
2019-03-08T11:07:04.348Z,0.56
2019-03-08T11:08:03.595Z,0.78
2019-03-08T11:09:02.905Z,0.82
2019-03-08T11:10:02.896Z,0.59
2019-03-08T11:11:06.816Z,0.66
2019-03-08T11:12:03.596Z,0.57
2019-03-08T11:13:02.717Z,0.6
2019-03-08T11:14:02.888Z,0.79
2019-03-08T11:15:03.605Z,0.59
2019-03-08T11:16:03.774Z,0.67
2019-03-08T11:17:02.934Z,0.66
2019-03-08T11:18:03.631Z,0.66
2019-03-08T11:19:09.145Z,0.54
2019-03-08T11:20:03.514Z,0.57
2019-03-08T11:21:03.347Z,0.57
2019-03-08T11:22:03.433Z,0.59
2019-03-08T11:23:03.390Z,0.55
2019-03-08T11:24:03.364Z,0.55
2019-03-08T11:25:08.728Z,0.55
2019-03-08T11:26:03.519Z,0.4
2019-03-08T11:27:05.458Z,0.36
2019-03-08T11:28:03.601Z,0.42
2019-03-08T11:29:03.269Z,0.51
2019-03-08T11:30:03.076Z,0.54
2019-03-08T11:31:03.560Z,0.56
2019-03-08T11:32:03.253Z,0.6
2019-03-08T11:33:03.278Z,0.66
2019-03-08T11:34:03.147Z,0.66
2019-03-08T11:35:03.148Z,0.51
2019-03-08T11:36:03.173Z,0.58
2019-03-08T11:37:04.409Z,0.46
2019-03-08T11:38:03.120Z,0.46
2019-03-08T11:39:03.658Z,0.76
2019-03-08T11:40:03.148Z,0.55
2019-03-08T11:41:03.078Z,0.64
2019-03-08T11:42:02.983Z,0.62
2019-03-08T11:43:02.799Z,0.61
2019-03-08T11:44:03.003Z,0.65
2019-03-08T11:45:03.142Z,0.75
2019-03-08T11:46:02.778Z,0.54
2019-03-08T11:47:04.258Z,0.84
2019-03-08T11:48:02.674Z,0.75
2019-03-08T11:49:02.905Z,0.76
2019-03-08T11:50:03.406Z,0.96
2019-03-08T11:51:03.485Z,0.59
2019-03-08T11:52:03.587Z,0.48
2019-03-08T11:53:03.410Z,0.51
2019-03-08T11:54:03.538Z,0.72
2019-03-08T11:55:03.704Z,0.72
2019-03-08T11:56:02.934Z,0.6
2019-03-08T11:57:02.828Z,0.72
2019-03-08T11:58:03.556Z,0.71
2019-03-08T11:59:02.587Z,2.44
2019-03-08T12:00:03.560Z,1
2019-03-08T12:01:02.731Z,0.71
2019-03-08T12:02:05.794Z,0.79
2019-03-08T12:03:02.928Z,0.77
2019-03-08T12:04:03.498Z,0.75
2019-03-08T12:05:02.611Z,0.82
2019-03-08T12:06:03.403Z,0.62
2019-03-08T12:07:03.578Z,0.61
2019-03-08T12:08:03.471Z,0.9
2019-03-08T12:09:03.387Z,0.9
2019-03-08T12:10:03.601Z,0.87
2019-03-08T12:11:03.546Z,0.61
2019-03-08T12:12:03.555Z,0.74
2019-03-08T12:13:03.573Z,0.62
2019-03-08T12:14:03.679Z,0.81
2019-03-08T12:15:03.365Z,0.66
2019-03-08T12:16:03.566Z,0.59
2019-03-08T12:17:03.257Z,0.68
2019-03-08T12:18:03.263Z,0.74
2019-03-08T12:19:03.439Z,0.64
2019-03-08T12:20:03.474Z,0.73
2019-03-08T12:21:03.085Z,0.78
2019-03-08T12:22:03.254Z,0.92
2019-03-08T12:23:03.169Z,0.75
2019-03-08T12:24:03.300Z,0.62
2019-03-08T12:25:03.135Z,1.33
2019-03-08T12:26:02.828Z,0.62
2019-03-08T12:27:04.822Z,0.56
2019-03-08T12:28:03.135Z,0.95
2019-03-08T12:29:03.739Z,1.1
2019-03-08T12:30:04.561Z,0.67
2019-03-08T12:31:03.096Z,0.73
2019-03-08T12:32:02.801Z,0.62
2019-03-08T12:33:02.657Z,0.72
2019-03-08T12:34:03.699Z,0.66
2019-03-08T12:35:02.893Z,0.66
2019-03-08T12:36:04.588Z,0.96
2019-03-08T12:37:02.823Z,0.79
2019-03-08T12:38:03.181Z,0.52
2019-03-08T12:39:02.820Z,0.94
2019-03-08T12:40:02.974Z,0.66
2019-03-08T12:41:03.768Z,0.76
2019-03-08T12:42:02.796Z,0.95
2019-03-08T12:43:08.513Z,0.8
2019-03-08T12:44:03.753Z,0.85
2019-03-08T12:45:03.649Z,0.92
2019-03-08T12:46:03.549Z,0.83
2019-03-08T12:47:03.481Z,0.72
2019-03-08T12:48:03.583Z,0.76
2019-03-08T12:49:03.546Z,0.76
2019-03-08T12:50:03.654Z,0.76
2019-03-08T12:51:03.743Z,0.76
2019-03-08T12:52:03.648Z,1.09
2019-03-08T12:53:03.345Z,0.71
2019-03-08T12:54:03.275Z,0.77
2019-03-08T12:55:03.414Z,1.01
2019-03-08T12:56:03.239Z,0.61
2019-03-08T12:57:03.351Z,0.63
2019-03-08T12:58:03.301Z,0.63
2019-03-08T12:59:03.381Z,0.72
2019-03-08T13:00:03.589Z,0.71
2019-03-08T13:01:03.348Z,0.65
2019-03-08T13:02:03.492Z,0.73
2019-03-08T13:03:03.581Z,0.59
2019-03-08T13:04:03.085Z,0.78
2019-03-08T13:05:03.324Z,0.78
2019-03-08T13:06:03.097Z,1.05
2019-03-08T13:07:03.196Z,0.81
2019-03-08T13:08:03.359Z,0.72
2019-03-08T13:09:03.558Z,0.76
2019-03-08T13:10:03.434Z,0.84
2019-03-08T13:11:03.299Z,0.69
2019-03-08T13:12:03.222Z,0.89
2019-03-08T13:13:03.077Z,0.65
2019-03-08T13:14:03.065Z,1.14
2019-03-08T13:15:03.075Z,0.81
2019-03-08T13:16:03.013Z,0.74
2019-03-08T13:17:03.035Z,0.92
2019-03-08T13:18:02.967Z,0.76
2019-03-08T13:19:02.872Z,0.97
2019-03-08T13:20:02.150Z,1.03
2019-03-08T13:21:03.090Z,0.79
2019-03-08T13:22:03.637Z,0.71
2019-03-08T13:23:02.800Z,0.55
2019-03-08T13:24:02.936Z,0.76
2019-03-08T13:25:02.951Z,1.04
2019-03-08T13:26:03.203Z,1.2